Latest Weather Observations for Yarram Airport

IDV60801

Issued at 9:02 am EDT Friday 22 October 2021 (issued every 10 minutes, with the page automatically refreshed every 10 minutes)

About weather observations | Map of weather stations | Latest weather observations for VIC | Other Formats
Station Details ID: 085151 Name: YARRAM AIRPORT Lat: -38.56 Lon: 146.75 Height: 17.9 m
Data from the previous 72 hours. | See also: Recent months at Yarram Airport
Date/Time
EDT
Temp
°C
App
Temp
°C
Dew
Point
°C
Rel
Hum
%
Delta-T
°C
Wind Press
QNH
hPa
Press
MSL
hPa
Rain since
9am
mm
Dir  Spd
km/h
Gust
km/h
Spd
kts
Gust
kts
22/09:00am 15.2 16.7 14.6 96 0.3 CALM 0 0 0 0 1015.1 1015.1 0.0
22/08:30am 14.3 15.6 14.0 98 0.2 CALM 0 0 0 0 1015.0 1015.0 0.0
22/08:00am 13.4 14.4 13.1 98 0.2 CALM 0 0 0 0 1014.8 1014.8 0.0
22/07:30am 12.4 13.1 12.1 98 0.2 CALM 0 0 0 0 1014.8 1014.8 0.0
22/07:00am 11.6 12.0 11.3 98 0.2 CALM 0 0 0 0 1014.6 1014.6 0.0
22/06:30am 10.8 11.0 10.5 98 0.2 CALM 0 0 0 0 1014.4 1014.4 0.0
22/06:00am 10.6 10.7 10.3 98 0.2 CALM 0 0 0 0 1014.1 1014.1 0.0
22/05:30am 10.5 10.6 10.2 98 0.2 CALM 0 0 0 0 1013.8 1013.8 0.0
22/05:00am 11.3 11.6 11.0 98 0.2 CALM 0 0 0 0 1013.7 1013.7 0.0
22/04:30am 11.3 11.6 11.0 98 0.2 CALM 0 0 0 0 1013.8 1013.8 0.0
22/04:00am 11.2 11.4 10.7 97 0.3 CALM 0 0 0 0 1013.9 1013.9 0.0
22/03:30am 11.1 9.6 10.6 97 0.3 W 9 11 5 6 1014.0 1014.0 0.0
22/03:00am 11.1 11.3 10.5 96 0.3 CALM 0 0 0 0 1013.9 1013.9 0.0
22/02:30am 12.4 12.6 11.9 97 0.3 NE 2 7 1 4 1013.9 1013.9 0.0
22/02:00am 12.2 12.7 11.6 96 0.3 CALM 0 0 0 0 1014.0 1014.0 0.0
22/01:30am 13.3 12.5 12.8 97 0.3 ENE 9 13 5 7 1014.4 1014.4 0.0
22/01:00am 13.0 12.4 12.4 96 0.3 E 7 9 4 5 1014.7 1014.7 0.0
22/12:30am 13.4 13.1 12.6 95 0.4 E 6 7 3 4 1014.8 1014.8 0.0
22/12:00am 14.4 14.3 13.8 96 0.3 ENE 7 11 4 6 1015.1 1015.1 0.0
 
Date/Time
EDT
Temp
°C
App
Temp
°C
Dew
Point
°C
Rel
Hum
%
Delta-T
°C
Wind Press
QNH
hPa
Press
MSL
hPa
Rain since
9am
mm
Dir  Spd
km/h
Gust
km/h
Spd
kts
Gust
kts
21/11:30pm 14.2 14.0 13.6 96 0.3 ENE 7 9 4 5 1015.2 1015.2 0.0
21/11:00pm 14.4 13.8 13.6 95 0.4 ENE 9 11 5 6 1015.3 1015.3 0.0
21/10:30pm 14.8 14.4 14.0 95 0.5 E 9 13 5 7 1015.4 1015.4 0.0
21/10:00pm 14.9 14.5 14.1 95 0.5 E 9 11 5 6 1015.6 1015.6 0.0
21/09:30pm 15.1 15.1 14.1 94 0.6 E 7 9 4 5 1015.8 1015.8 0.0
21/09:00pm 15.1 15.2 14.0 93 0.6 E 6 7 3 4 1015.7 1015.7 0.0
21/08:30pm 15.4 15.6 14.1 92 0.7 E 6 9 3 5 1015.3 1015.3 0.0
21/08:00pm 15.8 15.8 14.3 91 0.9 ENE 7 11 4 6 1015.2 1015.2 0.0
21/07:30pm 16.2 15.2 14.6 90 0.9 E 13 17 7 9 1014.8 1014.8 0.0
21/07:00pm 16.7 15.0 14.7 88 1.2 E 17 22 9 12 1014.5 1014.5 0.0
21/06:30pm 17.4 15.8 14.9 85 1.4 E 17 24 9 13 1014.4 1014.4 0.0
21/06:00pm 18.6 17.0 15.1 80 2.0 E 17 26 9 14 1014.1 1014.1 0.0
21/05:30pm 19.7 17.9 13.4 67 3.6 ENE 15 28 8 15 1013.8 1013.8 0.0
21/05:00pm 19.7 17.5 14.3 71 3.1 E 19 26 10 14 1013.8 1013.8 0.0
21/04:30pm 20.5 17.6 13.9 66 3.8 E 22 30 12 16 1013.9 1013.9 0.0
21/04:00pm 20.8 18.1 13.0 61 4.4 ENE 19 26 10 14 1014.0 1014.0 0.0
21/03:30pm 20.6 18.3 14.0 66 3.8 ENE 19 26 10 14 1014.3 1014.3 0.0
21/03:00pm 19.2 16.1 13.4 69 3.3 E 22 28 12 15 1014.3 1014.3 0.0
21/02:30pm 19.4 17.3 14.6 74 2.8 E 19 28 10 15 1014.6 1014.6 0.0
21/02:00pm 20.3 17.5 14.2 68 3.5 E 22 30 12 16 1014.9 1014.9 0.0
21/01:30pm 19.9 17.9 14.0 69 3.4 E 17 26 9 14 1015.2 1015.2 0.0
21/01:00pm 18.7 16.6 13.6 72 2.9 ENE 17 24 9 13 1015.5 1015.5 0.0
21/12:30pm 18.6 16.4 14.3 76 2.5 E 19 26 10 14 1015.6 1015.6 0.0
21/12:00pm 18.7 16.6 14.6 77 2.4 E 19 26 10 14 1015.9 1015.9 0.0
21/11:30am 18.4 16.7 13.7 74 2.7 ENE 15 22 8 12 1016.3 1016.3 0.0
21/11:00am 18.8 17.1 12.3 66 3.6 ENE 13 19 7 10 1016.6 1016.6 0.0
21/10:30am 18.6 16.6 12.8 69 3.3 ENE 15 20 8 11 1016.9 1016.9 0.0
21/10:00am 19.1 16.5 13.1 68 3.4 NE 19 26 10 14 1017.0 1017.0 0.0
21/09:30am 17.2 14.2 11.9 71 2.9 NE 19 30 10 16 1017.1 1017.1 0.0
21/09:00am 17.2 14.2 12.5 74 2.6 NE 20 28 11 15 1017.2 1017.2 0.0
21/08:30am 16.2 12.5 12.6 79 2.0 NE 24 33 13 18 1017.1 1017.1 0.0
21/08:00am 15.4 11.9 12.3 82 1.7 NE 22 30 12 16 1017.2 1017.2 0.0
21/07:30am 14.7 12.0 12.9 89 1.0 NE 19 26 10 14 1017.1 1017.1 0.0
21/07:00am 14.1 11.4 12.8 92 0.7 NE 19 32 10 17 1016.9 1016.9 0.0
21/06:30am 13.8 11.0 12.7 93 0.6 NE 19 28 10 15 1016.7 1016.7 0.0
21/06:00am 13.5 11.0 12.4 93 0.6 NE 17 24 9 13 1016.7 1016.7 0.0
21/05:30am 13.7 11.7 12.6 93 0.6 NE 15 22 8 12 1016.6 1016.6 0.0
21/05:00am 13.8 11.7 12.5 92 0.7 NE 15 26 8 14 1016.7 1016.7 0.0
21/04:30am 13.9 11.8 12.3 90 0.9 NE 15 22 8 12 1016.9 1016.9 0.0
21/04:00am 14.1 11.7 12.5 90 0.9 NE 17 22 9 12 1017.0 1017.0 0.0
21/03:30am 14.3 11.8 12.3 88 1.1 NE 17 26 9 14 1017.2 1017.2 0.0
21/03:00am 14.6 11.8 12.5 87 1.1 NE 19 28 10 15 1017.5 1017.5 0.0
21/02:30am 14.7 12.3 12.6 87 1.1 NE 17 24 9 13 1017.7 1017.7 0.0
21/02:00am 14.7 11.7 12.4 86 1.3 NE 20 32 11 17 1018.2 1018.2 0.0
21/01:30am 14.6 11.6 12.6 88 1.1 NE 20 30 11 16 1018.7 1018.7 0.0
21/01:00am 14.6 11.7 12.8 89 1.0 NE 20 32 11 17 1019.0 1019.0 0.0
21/12:30am 14.6 11.2 12.6 88 1.1 NE 22 35 12 19 1019.3 1019.3 0.0
21/12:00am 14.6 10.8 12.5 87 1.1 NE 24 35 13 19 1019.5 1019.5 0.0
 
Date/Time
EDT
Temp
°C
App
Temp
°C
Dew
Point
°C
Rel
Hum
%
Delta-T
°C
Wind Press
QNH
hPa
Press
MSL
hPa
Rain since
9am
mm
Dir  Spd
km/h
Gust
km/h
Spd
kts
Gust
kts
20/11:30pm 14.6 10.1 12.5 87 1.1 ENE 28 41 15 22 1019.6 1019.6 0.0
20/11:12pm 14.6 10.1 12.5 87 1.1 ENE 28 50 15 27 1019.8 1019.8 0.0
20/11:00pm 14.5 10.7 12.4 87 1.1 NE 24 37 13 20 1020.1 1020.1 0.0
20/10:30pm 14.4 11.4 12.4 88 1.1 NE 20 28 11 15 1020.7 1020.7 0.0
20/10:00pm 14.5 10.3 12.4 87 1.1 ENE 26 41 14 22 1020.8 1020.8 0.0
20/09:30pm 14.5 11.1 12.4 87 1.1 ENE 22 32 12 17 1020.8 1020.8 0.0
20/09:00pm 14.6 10.8 12.5 87 1.1 ENE 24 37 13 20 1020.7 1020.7 0.0
20/08:30pm 14.4 11.4 12.4 88 1.1 ENE 20 32 11 17 1020.6 1020.6 0.0
20/08:00pm 14.3 11.5 12.5 89 1.0 ENE 19 30 10 16 1020.4 1020.4 0.0
20/07:30pm 14.3 11.2 12.3 88 1.1 ENE 20 32 11 17 1020.1 1020.1 0.0
20/07:00pm 14.4 10.9 12.1 86 1.2 ENE 22 35 12 19 1019.9 1019.9 0.0
20/06:30pm 14.6 10.7 12.1 85 1.4 ENE 24 35 13 19 1020.0 1020.0 0.0
20/06:00pm 14.8 10.1 11.9 83 1.6 ENE 28 41 15 22 1019.8 1019.8 0.0
20/05:30pm 15.1 10.8 12.1 82 1.6 ENE 26 41 14 22 1019.9 1019.9 0.0
20/05:00pm 15.1 10.4 11.9 81 1.7 ENE 28 44 15 24 1020.1 1020.1 0.0
20/04:30pm 15.8 12.3 12.2 79 2.0 ENE 22 33 12 18 1020.3 1020.3 0.0
20/04:00pm 15.7 10.2 11.7 77 2.2 E 32 46 17 25 1020.6 1020.6 0.0
20/03:30pm 16.3 11.3 12.1 76 2.3 E 30 43 16 23 1020.9 1020.9 0.0
20/03:00pm 17.5 12.7 12.8 74 2.6 E 30 44 16 24 1021.2 1021.2 0.0
20/02:30pm 16.3 11.1 11.7 74 2.5 E 30 44 16 24 1021.6 1021.6 0.0
20/02:00pm 16.3 11.1 11.7 74 2.5 ENE 30 44 16 24 1021.9 1021.9 0.0
20/01:30pm 17.7 13.7 13.0 74 2.6 ENE 26 41 14 22 1022.1 1022.1 0.0
20/01:00pm 16.1 11.3 11.5 74 2.5 ENE 28 41 15 22 1022.3 1022.3 0.0
20/12:30pm 16.9 12.2 12.0 73 2.7 ENE 28 44 15 24 1022.5 1022.5 0.0
20/12:00pm 16.2 11.8 11.6 74 2.5 ENE 26 37 14 20 1023.0 1023.0 0.0
20/11:30am 15.7 11.2 11.5 76 2.3 ENE 26 37 14 20 1023.4 1023.4 0.0
20/11:00am 15.4 11.3 11.6 78 2.0 ENE 24 39 13 21 1023.7 1023.7 0.0
20/10:30am 16.2 11.4 11.8 75 2.4 ENE 28 48 15 26 1023.9 1023.9 0.0
20/10:21am 14.9 9.8 10.7 76 2.2 ENE 28 48 15 26 1024.1 1024.1 0.0
20/10:00am 14.9 10.2 10.7 76 2.2 ENE 26 41 14 22 1024.1 1024.1 0.0
20/09:30am 15.1 11.4 11.5 79 1.9 ENE 22 35 12 19 1024.3 1024.3 0.0
20/09:00am 14.1 10.7 11.1 82 1.6 ENE 20 33 11 18 1024.5 1024.5 1.2
20/08:30am 13.7 9.8 10.9 83 1.5 E 22 35 12 19 1024.5 1024.5 1.2
20/08:00am 13.5 10.0 10.9 84 1.4 E 20 32 11 17 1024.8 1024.8 1.2
20/07:30am 13.3 9.9 10.7 84 1.4 E 19 30 10 16 1024.7 1024.7 1.2
20/07:00am 12.7 10.0 10.2 85 1.3 E 15 22 8 12 1024.7 1024.7 1.2
20/06:30am 12.4 10.1 10.5 88 1.0 E 13 20 7 11 1024.9 1024.9 1.2
20/06:00am 12.0 9.6 10.1 88 1.0 E 13 20 7 11 1024.4 1024.4 1.2
20/05:30am 11.8 9.4 9.9 88 1.0 E 13 17 7 9 1024.4 1024.4 1.2
20/05:00am 11.5 9.3 9.4 87 1.1 E 11 15 6 8 1024.3 1024.3 1.2
20/04:30am 12.0 9.5 9.6 85 1.2 E 13 19 7 10 1024.4 1024.4 1.2
20/04:00am 12.1 10.0 9.7 85 1.2 E 11 20 6 11 1024.5 1024.5 1.2
20/03:30am 11.7 9.2 9.8 88 1.0 E 13 20 7 11 1024.4 1024.4 1.2
20/03:00am 11.7 8.8 9.6 87 1.1 E 15 22 8 12 1024.7 1024.7 1.2
20/02:30am 12.4 9.7 10.3 87 1.1 ESE 15 24 8 13 1025.0 1025.0 1.2
20/02:00am 12.2 9.0 10.1 87 1.1 ESE 17 26 9 14 1025.1 1025.1 1.2
20/01:30am 12.3 8.9 10.4 88 1.0 ESE 19 24 10 13 1025.4 1025.4 1.2
20/01:00am 12.2 7.7 10.1 87 1.1 ESE 24 33 13 18 1025.9 1025.9 1.2
20/12:30am 12.3 8.7 10.7 90 0.8 SE 20 26 11 14 1026.1 1026.1 1.2
20/12:00am 12.2 8.9 10.8 91 0.7 SE 19 28 10 15 1026.3 1026.3 1.2
 
Date/Time
EDT
Temp
°C
App
Temp
°C
Dew
Point
°C
Rel
Hum
%
Delta-T
°C
Wind Press
QNH
hPa
Press
MSL
hPa
Rain since
9am
mm
Dir  Spd
km/h
Gust
km/h
Spd
kts
Gust
kts
19/11:30pm 12.4 8.0 10.5 88 1.0 SE 24 32 13 17 1025.8 1025.8 1.2
19/11:00pm 12.5 8.0 10.2 86 1.2 ESE 24 32 13 17 1025.7 1025.7 1.2
19/10:30pm 12.4 7.9 10.1 86 1.2 ESE 24 33 13 18 1025.4 1025.4 1.2
19/10:00pm 12.5 8.0 10.0 85 1.3 ESE 24 39 13 21 1025.2 1025.2 1.2
19/09:30pm 12.5 7.6 9.9 84 1.3 ESE 26 39 14 21 1025.1 1025.1 1.2
19/09:00pm 12.7 7.7 9.7 82 1.5 ESE 26 35 14 19 1025.2 1025.2 1.2
19/08:30pm 12.6 8.4 9.6 82 1.5 ESE 22 30 12 16 1025.3 1025.3 1.2
19/08:00pm 12.9 8.3 9.7 81 1.6 ESE 24 33 13 18 1024.8 1024.8 1.2
19/07:30pm 12.7 8.9 9.9 83 1.4 ESE 20 32 11 17 1024.3 1024.3 1.2
19/07:00pm 13.1 8.7 10.5 84 1.3 ESE 24 32 13 17 1024.1 1024.1 1.2
19/06:30pm 13.4 8.2 10.2 81 1.7 ESE 28 35 15 19 1024.0 1024.0 1.2
19/06:00pm 13.6 7.5 10.4 81 1.7 ESE 33 41 18 22 1023.8 1023.8 1.2
19/05:30pm 13.9 7.8 10.3 79 1.9 ESE 33 46 18 25 1023.5 1023.5 1.2
19/05:00pm 13.7 7.6 10.5 81 1.7 ESE 33 43 18 23 1023.1 1023.1 1.2
19/04:30pm 14.0 8.1 10.6 80 1.8 SE 32 44 17 24 1022.9 1022.9 1.2
19/04:00pm 14.3 8.8 10.5 78 2.0 ESE 30 39 16 21 1022.9 1022.9 1.2
19/03:30pm 15.0 9.6 10.8 76 2.2 ESE 30 39 16 21 1022.8 1022.8 1.2
19/03:00pm 15.1 9.2 10.5 74 2.4 SE 32 41 17 22 1022.7 1022.7 1.2
19/02:30pm 15.1 9.2 10.3 73 2.5 SE 32 43 17 23 1022.5 1022.5 1.2
19/02:00pm 15.3 10.0 11.3 77 2.1 SE 30 43 16 23 1022.4 1022.4 1.2
19/01:30pm 15.1 8.4 10.9 76 2.2 SE 37 46 20 25 1022.2 1022.2 1.2
19/01:00pm 14.7 7.3 11.3 80 1.8 SE 41 52 22 28 1021.8 1021.8 1.2
19/12:30pm 14.5 8.5 12.2 86 1.2 SSE 35 46 19 25 1021.7 1021.7 1.2
19/12:00pm 13.9 8.4 11.9 88 1.1 S 32 46 17 25 1021.6 1021.6 1.2
19/11:30am 12.5 7.7 11.6 94 0.5 SSE 28 39 15 21 1021.9 1021.9 1.2
19/11:00am 12.1 6.4 11.0 93 0.6 SSE 32 44 17 24 1021.9 1021.9 0.4
19/10:54am 12.4 7.3 10.5 88 1.0 S 28 44 15 24 1021.8 1021.8 0.4
19/10:30am 12.1 8.6 11.0 93 0.6 S 20 26 11 14 1021.7 1021.7 0.4
19/10:00am 13.6 8.7 9.8 78 1.9 S 26 33 14 18 1021.5 1021.5 0.0
19/09:30am 13.7 9.5 9.7 77 2.1 S 22 32 12 17 1021.2 1021.2 0.0

Other formats

Comma delimited format used in spreadsheet applications
http://www.bom.gov.au/fwo/IDV60801/IDV60801.95890.axf

JavaScript Object Notation format (JSON) in row-major order
http://www.bom.gov.au/fwo/IDV60801/IDV60801.95890.json

Data quality

Most of these data are generated automatically and are frequently updated. Quality checks on data are not normally performed. It is possible for incorrect values to appear. Refer to information at About Latest Weather Observations and please check the disclaimer before using these data.